Time;durP1;ratioP1;P1;durP2;ratioP2;P2;SDS_P1;SDS_P2;PMS_P1;PMS_P2;Temp;Humidity;BMP_temperature;BMP_pressure;BME280_temperature;BME280_humidity;BME280_pressure;Samples;Min_cycle;Max_cycle;Signal;HPM_P1;HPM_P2
2023/06/19 00:01:44;;;;;;;10.90;6.72;;;;;;;24.71;46.64;100149.69;5093616;28;20054;-69
2023/06/19 00:04:12;;;;;;;9.50;6.47;;;;;;;24.67;46.71;100146.47;5093597;28;20044;-69
2023/06/19 00:06:40;;;;;;;8.77;6.18;;;;;;;24.67;47.00;100149.19;5093421;28;20055;-69
2023/06/19 00:09:08;;;;;;;8.95;5.90;;;;;;;24.66;46.70;100147.50;5093222;28;20501;-69
2023/06/19 00:11:38;;;;;;;9.23;6.50;;;;;;;24.67;46.59;100153.81;5093259;28;20394;-68
2023/06/19 00:14:07;;;;;;;9.63;6.03;;;;;;;24.66;46.70;100157.56;5093489;28;20105;-68
2023/06/19 00:16:35;;;;;;;7.97;6.10;;;;;;;24.65;46.78;100158.63;5093425;28;20048;-70
2023/06/19 00:19:03;;;;;;;9.38;6.20;;;;;;;24.62;46.94;100146.19;5092235;28;20048;-70
2023/06/19 00:21:31;;;;;;;8.93;6.40;;;;;;;24.62;46.76;100161.72;5093293;28;20040;-70
2023/06/19 00:23:59;;;;;;;10.02;6.18;;;;;;;24.60;46.96;100152.84;5093198;28;20044;-70
2023/06/19 00:26:27;;;;;;;10.13;6.18;;;;;;;24.59;46.82;100151.16;5091757;28;20129;-69
2023/06/19 00:28:57;;;;;;;7.72;5.93;;;;;;;24.57;46.70;100148.63;5093171;28;20059;-70
2023/06/19 00:31:27;;;;;;;8.48;6.38;;;;;;;24.55;46.82;100148.81;5092843;28;20048;-68
2023/06/19 00:33:55;;;;;;;8.10;5.97;;;;;;;24.54;46.94;100144.41;5092878;28;20079;-70
2023/06/19 00:36:25;;;;;;;8.05;6.10;;;;;;;24.52;47.12;100140.16;5092820;28;20093;-70
2023/06/19 00:38:54;;;;;;;8.48;6.55;;;;;;;24.50;47.09;100137.59;5092763;28;20106;-70
2023/06/19 00:41:22;;;;;;;9.25;6.18;;;;;;;24.49;47.23;100140.53;5092819;28;20583;-68
2023/06/19 00:43:52;;;;;;;8.90;6.20;;;;;;;24.47;47.32;100143.44;5092859;28;20044;-70
2023/06/19 00:46:22;;;;;;;10.30;6.55;;;;;;;24.46;47.38;100138.16;5092675;28;20080;-70
2023/06/19 00:48:50;;;;;;;7.78;6.40;;;;;;;24.44;47.46;100143.81;5092576;28;20093;-70
2023/06/19 00:51:19;;;;;;;9.20;6.47;;;;;;;24.41;47.46;100149.63;5092571;28;20455;-70
2023/06/19 00:53:47;;;;;;;8.40;6.43;;;;;;;24.40;47.54;100155.25;5092657;28;20044;-70
2023/06/19 00:56:18;;;;;;;8.60;6.05;;;;;;;24.37;47.67;100147.44;5092418;28;20103;-69
2023/06/19 00:58:46;;;;;;;8.88;6.72;;;;;;;24.35;47.79;100142.19;5092505;28;20082;-69
2023/06/19 01:01:14;;;;;;;8.30;6.55;;;;;;;24.35;47.50;100138.63;5092332;28;20499;-69
2023/06/19 01:03:44;;;;;;;8.95;6.18;;;;;;;24.35;47.68;100141.34;5092229;28;20515;-69
2023/06/19 01:06:16;;;;;;;9.32;6.35;;;;;;;24.34;47.57;100137.78;5092383;28;20048;-69
2023/06/19 01:08:52;;;;;;;9.63;6.53;;;;;;;24.35;47.53;100139.47;5092202;28;20067;-69
2023/06/19 01:11:24;;;;;;;8.60;5.70;;;;;;;24.35;47.55;100133.16;5092306;28;20044;-69
2023/06/19 01:13:58;;;;;;;7.43;6.00;;;;;;;24.35;47.27;100127.72;5092230;28;20040;-69
2023/06/19 01:16:28;;;;;;;7.47;5.82;;;;;;;24.34;47.20;100132.31;5091946;28;20048;-69
2023/06/19 01:18:59;;;;;;;8.75;6.35;;;;;;;24.34;47.36;100137.78;5092173;28;20055;-69
2023/06/19 01:21:27;;;;;;;8.32;6.13;;;;;;;24.35;47.54;100127.72;5092116;28;20064;-69
2023/06/19 01:23:56;;;;;;;8.70;6.00;;;;;;;24.33;47.53;100141.53;5091921;28;20055;-69
2023/06/19 01:26:27;;;;;;;10.05;6.07;;;;;;;24.31;47.74;100143.56;5091767;28;20048;-69
2023/06/19 01:28:57;;;;;;;9.18;6.22;;;;;;;24.25;48.06;100136.97;5091855;28;20465;-69
2023/06/19 01:31:32;;;;;;;8.02;6.32;;;;;;;24.17;48.25;100136.19;5092303;28;20131;-70
2023/06/19 01:34:02;;;;;;;8.90;6.25;;;;;;;24.13;48.43;100135.72;5091878;28;20075;-69
2023/06/19 01:36:31;;;;;;;9.77;6.57;;;;;;;24.11;48.55;100129.56;5091394;28;20393;-69
2023/06/19 01:39:01;;;;;;;7.97;6.18;;;;;;;24.08;48.53;100126.38;5091708;28;20241;-69
2023/06/19 01:41:31;;;;;;;8.63;6.18;;;;;;;24.07;48.44;100130.13;5091513;28;20076;-69
2023/06/19 01:44:02;;;;;;;7.85;5.80;;;;;;;24.07;48.57;100119.25;5091964;28;20485;-69
2023/06/19 01:46:30;;;;;;;9.52;6.38;;;;;;;24.06;48.50;100118.38;5091699;28;20048;-69
2023/06/19 01:48:59;;;;;;;9.98;6.45;;;;;;;24.07;48.30;100120.09;5091683;28;20092;-68
2023/06/19 01:51:27;;;;;;;9.02;6.13;;;;;;;24.07;48.40;100119.25;5091677;28;20405;-69
2023/06/19 01:53:55;;;;;;;8.57;6.65;;;;;;;24.09;48.25;100122.63;5091492;28;20048;-69
2023/06/19 01:56:25;;;;;;;8.13;6.05;;;;;;;24.09;48.31;100122.63;5091806;28;20048;-70
2023/06/19 01:58:55;;;;;;;9.13;6.20;;;;;;;24.09;48.28;100122.63;5091610;28;20139;-70
2023/06/19 02:01:23;;;;;;;9.35;6.18;;;;;;;24.07;48.31;100120.09;5091616;28;20456;-70
2023/06/19 02:03:51;;;;;;;9.93;6.45;;;;;;;24.07;48.27;100124.69;5091384;28;20051;-69
2023/06/19 02:06:21;;;;;;;7.90;6.03;;;;;;;24.05;48.26;100126.75;5091342;28;20092;-69
2023/06/19 02:08:49;;;;;;;8.80;6.20;;;;;;;24.05;48.31;100126.75;5091165;28;20144;-69
2023/06/19 02:11:17;;;;;;;8.75;5.95;;;;;;;24.05;48.22;100121.31;5091375;28;20070;-68
2023/06/19 02:13:47;;;;;;;8.13;5.95;;;;;;;24.05;48.41;100126.75;5091437;28;20048;-70
2023/06/19 02:16:15;;;;;;;8.25;5.95;;;;;;;24.05;48.17;100124.03;5091377;28;20483;-70
2023/06/19 02:18:43;;;;;;;7.68;5.75;;;;;;;24.04;48.21;100125.06;5091299;28;20131;-70
2023/06/19 02:21:12;;;;;;;9.23;5.80;;;;;;;24.04;48.14;100128.63;5091253;28;20044;-70
2023/06/19 02:23:40;;;;;;;8.35;5.80;;;;;;;24.04;48.17;100130.50;5091181;28;20052;-69
2023/06/19 02:26:08;;;;;;;7.88;5.97;;;;;;;24.04;48.33;100125.91;5091146;28;20055;-69
2023/06/19 02:28:36;;;;;;;7.97;6.30;;;;;;;24.03;48.29;100120.63;5091351;28;20108;-70
2023/06/19 02:31:06;;;;;;;8.52;6.20;;;;;;;24.03;49.03;100123.34;5091253;28;20044;-70
2023/06/19 02:33:34;;;;;;;8.07;5.95;;;;;;;24.02;49.10;100127.09;5090996;28;20044;-70
2023/06/19 02:36:03;;;;;;;9.75;7.03;;;;;;;24.01;49.42;100128.13;5091163;28;20080;-69
2023/06/19 02:38:31;;;;;;;7.90;6.35;;;;;;;23.97;49.31;100128.50;5091282;28;20127;-70
2023/06/19 02:41:01;;;;;;;9.25;6.45;;;;;;;23.95;49.39;100125.13;5091270;28;20056;-70
2023/06/19 02:43:29;;;;;;;9.38;6.82;;;;;;;23.92;49.27;100136.34;5091090;28;20081;-70
2023/06/19 02:45:57;;;;;;;8.68;6.55;;;;;;;23.90;49.34;100143.03;5091079;28;20048;-70
2023/06/19 02:48:28;;;;;;;9.32;6.30;;;;;;;23.89;49.31;100149.50;5091724;28;20052;-69
2023/06/19 02:50:56;;;;;;;9.18;5.95;;;;;;;23.87;49.21;100136.06;5095241;28;20088;-69
2023/06/19 02:53:24;;;;;;;9.35;6.53;;;;;;;23.87;49.36;100146.97;5095044;28;20040;-69
2023/06/19 02:55:53;;;;;;;8.75;6.15;;;;;;;23.90;49.67;100151.19;5094863;28;20044;-69
2023/06/19 02:58:21;;;;;;;8.45;6.85;;;;;;;23.88;49.96;100148.66;5094929;28;20531;-69
2023/06/19 03:00:50;;;;;;;10.68;6.85;;;;;;;23.86;49.88;100145.28;5094786;28;20097;-69
2023/06/19 03:03:18;;;;;;;9.20;6.85;;;;;;;23.85;49.77;100148.19;5094672;28;20381;-69
2023/06/19 03:05:48;;;;;;;9.15;6.20;;;;;;;23.84;49.65;100147.34;5094714;28;20044;-69
2023/06/19 03:08:17;;;;;;;8.50;5.95;;;;;;;23.83;49.79;100137.44;5094496;28;20052;-69
2023/06/19 03:10:45;;;;;;;10.80;6.40;;;;;;;23.85;49.53;100137.28;5094490;28;20040;-69
2023/06/19 03:13:14;;;;;;;9.10;6.05;;;;;;;23.78;49.50;100142.59;5094503;28;20048;-69
2023/06/19 03:15:43;;;;;;;10.38;6.75;;;;;;;23.72;49.52;100143.31;5094293;28;20149;-69
2023/06/19 03:18:12;;;;;;;8.05;6.10;;;;;;;23.70;49.71;100151.66;5094507;28;20044;-68
2023/06/19 03:20:40;;;;;;;8.07;6.43;;;;;;;23.70;49.79;100150.81;5094662;28;20105;-69
2023/06/19 03:23:10;;;;;;;9.55;6.10;;;;;;;23.70;49.79;100154.38;5094446;28;20059;-69
2023/06/19 03:25:42;;;;;;;8.38;6.18;;;;;;;23.69;49.92;100154.56;5094186;28;20489;-69
2023/06/19 03:28:10;;;;;;;9.45;6.60;;;;;;;23.68;50.07;100158.31;5094016;28;20092;-68
2023/06/19 03:30:39;;;;;;;8.48;6.47;;;;;;;23.66;49.97;100160.38;5094229;28;20048;-69
2023/06/19 03:33:07;;;;;;;9.18;6.15;;;;;;;23.66;49.90;100157.66;5094366;28;20047;-67
2023/06/19 03:35:35;;;;;;;8.88;7.15;;;;;;;23.53;50.80;100162.78;5094120;28;20436;-69
2023/06/19 03:38:04;;;;;;;11.13;7.53;;;;;;;23.35;51.51;100161.16;5094188;28;20131;-69
2023/06/19 03:40:33;;;;;;;12.25;7.57;;;;;;;23.26;51.88;100159.53;5093916;28;20079;-69
2023/06/19 03:43:01;;;;;;;10.57;7.50;;;;;;;23.18;52.23;100169.59;5093886;28;20500;-69
2023/06/19 03:45:29;;;;;;;11.30;7.50;;;;;;;23.05;52.88;100172.84;5093978;28;20052;-69
2023/06/19 03:47:57;;;;;;;10.50;7.57;;;;;;;22.92;53.36;100169.81;5093848;28;20504;-68
2023/06/19 03:50:26;;;;;;;10.52;7.63;;;;;;;22.86;53.56;100168.63;5093844;28;20362;-69
2023/06/19 03:52:54;;;;;;;10.73;7.15;;;;;;;22.89;53.20;100172.91;5093591;28;20055;-69
2023/06/19 03:55:22;;;;;;;9.05;6.78;;;;;;;22.93;53.24;100168.81;5093440;28;20043;-69
2023/06/19 03:57:52;;;;;;;10.80;7.30;;;;;;;22.94;53.26;100162.34;5093739;28;20054;-68
2023/06/19 04:00:21;;;;;;;9.27;6.97;;;;;;;22.97;52.94;100164.69;5093440;28;20059;-70
2023/06/19 04:02:50;;;;;;;10.05;7.10;;;;;;;23.02;52.89;100167.75;5093511;28;20054;-70
2023/06/19 04:05:19;;;;;;;8.73;6.07;;;;;;;23.07;52.60;100170.81;5093568;28;20043;-69
2023/06/19 04:07:48;;;;;;;9.20;6.78;;;;;;;23.13;52.40;100164.66;5093383;28;20058;-69
2023/06/19 04:10:16;;;;;;;10.18;6.75;;;;;;;23.17;52.14;100166.03;5093624;28;20052;-70
2023/06/19 04:12:45;;;;;;;9.25;6.28;;;;;;;23.20;51.91;100162.94;5093268;28;20532;-70
2023/06/19 04:15:14;;;;;;;10.32;6.57;;;;;;;23.22;51.83;100166.31;5093232;28;20040;-70
2023/06/19 04:17:42;;;;;;;8.80;6.30;;;;;;;23.24;51.89;100161.53;5093316;28;20468;-70
2023/06/19 04:20:12;;;;;;;8.65;6.38;;;;;;;23.27;51.63;100166.66;5092988;28;20044;-70
2023/06/19 04:22:41;;;;;;;8.70;6.10;;;;;;;23.28;51.62;100162.06;5093041;28;20511;-70
2023/06/19 04:25:10;;;;;;;9.45;6.65;;;;;;;23.29;51.75;100170.03;5093376;28;20078;-69
2023/06/19 04:27:39;;;;;;;10.32;6.68;;;;;;;23.29;52.04;100175.50;5093176;28;20412;-68
2023/06/19 04:30:08;;;;;;;9.57;6.78;;;;;;;23.30;51.83;100169.03;5093057;28;20076;-69
2023/06/19 04:32:40;;;;;;;8.95;6.43;;;;;;;23.31;52.09;100173.44;5093116;28;20047;-68
2023/06/19 04:35:09;;;;;;;7.75;6.28;;;;;;;23.32;51.64;100169.69;5092941;28;20139;-68
2023/06/19 04:37:37;;;;;;;8.00;5.97;;;;;;;23.33;51.50;100165.94;5092985;28;20051;-68
2023/06/19 04:40:08;;;;;;;11.57;7.05;;;;;;;23.35;51.79;100168.47;5092992;28;20385;-70
2023/06/19 04:42:38;;;;;;;8.40;6.80;;;;;;;23.35;52.12;100172.03;5092857;28;20048;-70
2023/06/19 04:45:09;;;;;;;9.10;7.13;;;;;;;23.31;52.00;100170.72;5092910;28;20126;-69
2023/06/19 04:47:39;;;;;;;9.88;6.80;;;;;;;23.32;51.97;100180.56;5092542;28;20052;-70
2023/06/19 04:50:20;;;;;;;9.13;6.55;;;;;;;23.33;51.71;100170.53;5092745;28;20040;-68
2023/06/19 04:52:50;;;;;;;9.20;6.40;;;;;;;23.33;51.93;100176.81;5092742;28;20113;-70
2023/06/19 04:55:19;;;;;;;9.18;6.70;;;;;;;23.34;51.72;100174.94;5092477;28;20458;-70
2023/06/19 04:57:48;;;;;;;7.65;6.22;;;;;;;23.35;51.81;100180.22;5092421;28;20086;-69
2023/06/19 05:00:19;;;;;;;10.63;6.95;;;;;;;23.36;51.84;100171.03;5092427;28;20056;-70
2023/06/19 05:02:49;;;;;;;11.77;6.90;;;;;;;23.38;51.88;100177.16;5092411;28;20131;-70
2023/06/19 05:05:17;;;;;;;11.07;7.15;;;;;;;23.37;51.72;100172.75;5092331;28;20051;-70
2023/06/19 05:07:50;;;;;;;8.45;6.53;;;;;;;23.37;51.60;100180.91;5092145;28;20056;-68
2023/06/19 05:10:19;;;;;;;9.18;6.78;;;;;;;23.39;51.65;100181.56;5092134;28;20126;-69
2023/06/19 05:12:47;;;;;;;9.43;6.50;;;;;;;23.40;51.50;100183.25;5091438;28;20098;-69
2023/06/19 05:15:15;;;;;;;9.57;6.55;;;;;;;23.41;51.43;100189.56;5092227;28;20094;-69
2023/06/19 05:17:46;;;;;;;8.45;6.28;;;;;;;23.42;51.41;100196.69;5092209;28;20071;-69
2023/06/19 05:20:16;;;;;;;10.65;6.78;;;;;;;23.42;51.54;100193.97;5091895;28;20044;-69
2023/06/19 05:22:44;;;;;;;8.43;6.40;;;;;;;23.42;51.24;100197.53;5092016;28;20618;-70
2023/06/19 05:25:12;;;;;;;8.07;6.13;;;;;;;23.43;51.31;100199.22;5091855;28;20082;-71
2023/06/19 05:27:40;;;;;;;15.88;6.50;;;;;;;23.44;51.30;100202.78;5092293;28;20479;-70
2023/06/19 05:30:10;;;;;;;8.23;6.30;;;;;;;23.43;51.33;100204.66;5091907;28;20094;-70
2023/06/19 05:32:38;;;;;;;10.65;6.10;;;;;;;23.46;51.34;100199.94;5091877;28;20051;-69
2023/06/19 05:35:07;;;;;;;9.48;6.05;;;;;;;23.46;51.39;100203.50;5091805;28;20143;-65
2023/06/19 05:37:39;;;;;;;8.68;5.70;;;;;;;23.48;51.40;100200.59;5089964;28;20052;-67
2023/06/19 05:40:09;;;;;;;8.63;6.18;;;;;;;23.50;51.52;100198.53;5090518;28;20405;-68
2023/06/19 05:42:38;;;;;;;8.85;6.32;;;;;;;23.50;51.36;100199.38;5091111;28;20044;-67
2023/06/19 05:45:07;;;;;;;10.18;5.78;;;;;;;23.51;51.30;100200.22;5070744;28;20505;-67
2023/06/19 05:47:35;;;;;;;9.35;6.20;;;;;;;23.53;51.42;100200.88;5070954;28;20147;-67
2023/06/19 05:50:05;;;;;;;8.35;6.25;;;;;;;23.53;51.63;100203.63;5070723;28;20135;-67
2023/06/19 05:52:33;;;;;;;7.78;5.68;;;;;;;23.54;51.73;100205.31;5073797;28;20090;-67
2023/06/19 05:55:02;;;;;;;9.10;6.35;;;;;;;23.56;51.69;100211.44;5090666;28;20047;-67
2023/06/19 05:57:31;;;;;;;7.72;6.03;;;;;;;23.57;52.11;100208.53;5091225;28;20090;-67
2023/06/19 06:00:00;;;;;;;10.20;6.50;;;;;;;23.60;52.19;100216.38;5089973;28;20048;-68
2023/06/19 06:02:28;;;;;;;8.77;6.18;;;;;;;23.61;52.08;100223.53;5090197;28;20428;-68
2023/06/19 06:04:57;;;;;;;8.23;5.80;;;;;;;23.64;52.05;100225.91;5090422;28;20066;-66
2023/06/19 06:07:27;;;;;;;9.93;7.10;;;;;;;23.65;51.97;100229.47;5090272;28;20493;-67
2023/06/19 06:09:58;;;;;;;10.68;6.20;;;;;;;23.67;51.97;100221.97;5049916;28;20037;-67
2023/06/19 06:12:28;;;;;;;8.70;6.60;;;;;;;23.67;52.02;100224.69;5049972;28;20132;-68
2023/06/19 06:14:57;;;;;;;9.52;6.68;;;;;;;23.68;52.00;100223.66;5050384;28;20041;-67
2023/06/19 06:17:25;;;;;;;7.97;6.32;;;;;;;23.70;52.03;100224.34;5050135;28;20122;-68
2023/06/19 06:19:53;;;;;;;9.75;6.60;;;;;;;23.72;52.14;100225.00;5050420;28;20052;-68
2023/06/19 06:22:22;;;;;;;8.90;6.53;;;;;;;23.74;52.49;100216.66;5051587;28;20456;-68
2023/06/19 06:24:50;;;;;;;9.05;6.65;;;;;;;23.74;52.24;100212.06;5054828;28;20052;-66
2023/06/19 06:27:18;;;;;;;8.63;6.22;;;;;;;23.76;52.20;100222.78;5054246;28;20048;-65
2023/06/19 06:29:48;;;;;;;9.27;6.60;;;;;;;23.79;52.21;100230.59;5054049;28;20084;-65
2023/06/19 06:32:16;;;;;;;8.60;6.53;;;;;;;23.79;52.36;100226.00;5054323;28;20076;-68
2023/06/19 06:34:44;;;;;;;12.48;6.97;;;;;;;23.79;52.15;100228.72;5054399;28;20045;-66
2023/06/19 06:37:12;;;;;;;10.05;7.15;;;;;;;23.79;52.09;100220.53;5054499;28;20136;-67
2023/06/19 06:39:40;;;;;;;10.18;7.00;;;;;;;23.76;52.27;100220.91;5053807;28;20049;-66
2023/06/19 06:42:08;;;;;;;9.85;6.90;;;;;;;23.76;52.39;100225.50;5054378;28;20402;-67
2023/06/19 06:44:36;;;;;;;13.98;6.97;;;;;;;23.77;52.36;100233.50;5054029;28;20128;-68
2023/06/19 06:47:06;;;;;;;14.73;7.47;;;;;;;23.81;52.63;100233.97;5054324;28;20457;-68
2023/06/19 06:49:35;;;;;;;14.82;7.85;;;;;;;23.84;52.73;100239.94;5052612;28;20049;-68
2023/06/19 06:52:03;;;;;;;13.63;7.72;;;;;;;23.87;52.61;100236.84;5052928;28;20051;-68
2023/06/19 06:54:32;;;;;;;21.05;8.30;;;;;;;23.89;53.01;100234.78;5053133;28;20049;-68
2023/06/19 06:57:00;;;;;;;17.65;7.63;;;;;;;23.90;52.47;100231.03;5052710;28;20521;-69
2023/06/19 06:59:28;;;;;;;15.90;7.65;;;;;;;23.91;52.53;100224.56;5052353;28;20084;-68
2023/06/19 07:01:57;;;;;;;15.45;7.75;;;;;;;23.93;52.39;100221.63;5052612;28;20076;-67
2023/06/19 07:04:26;;;;;;;16.40;7.80;;;;;;;23.93;52.48;100227.97;5053586;28;20516;-68
2023/06/19 07:06:55;;;;;;;18.98;7.95;;;;;;;23.95;52.81;100231.34;5053665;28;20045;-66
2023/06/19 07:09:23;;;;;;;16.17;7.70;;;;;;;23.97;52.72;100234.75;5084399;28;20055;-68
2023/06/19 07:11:51;;;;;;;17.02;8.02;;;;;;;23.98;52.74;100231.00;5093688;28;20490;-68
2023/06/19 07:14:21;;;;;;;16.80;8.70;;;;;;;23.99;52.87;100227.22;5093897;28;20044;-68
2023/06/19 07:16:50;;;;;;;19.55;8.52;;;;;;;24.01;52.76;100224.31;5093952;28;20044;-68
2023/06/19 07:19:18;;;;;;;16.45;8.57;;;;;;;24.01;52.69;100218.03;5093494;28;20135;-68
2023/06/19 07:21:48;;;;;;;11.15;7.80;;;;;;;24.03;52.63;100221.41;5093693;28;20120;-67
2023/06/19 07:24:16;;;;;;;13.10;8.20;;;;;;;24.06;52.96;100223.81;5093296;28;20050;-67
2023/06/19 07:26:46;;;;;;;13.52;7.38;;;;;;;24.10;52.83;100227.84;5093338;28;20098;-67
2023/06/19 07:29:14;;;;;;;14.77;7.47;;;;;;;24.13;52.75;100224.78;5093103;28;20059;-68
2023/06/19 07:31:43;;;;;;;13.32;7.45;;;;;;;24.16;52.65;100224.41;5093376;28;20040;-66
2023/06/19 07:34:11;;;;;;;12.75;7.72;;;;;;;24.14;51.83;100221.88;5092583;28;20493;-66
2023/06/19 07:36:39;;;;;;;13.13;7.70;;;;;;;24.11;51.47;100229.53;5092998;28;20554;-66
2023/06/19 07:39:09;;;;;;;11.57;7.70;;;;;;;24.11;51.60;100221.38;5093149;28;20083;-65
2023/06/19 07:41:37;;;;;;;13.00;8.13;;;;;;;24.11;51.80;100222.22;5093177;28;20083;-65
2023/06/19 07:44:06;;;;;;;11.45;7.30;;;;;;;24.15;52.12;100233.63;5093003;28;20126;-65
2023/06/19 07:46:34;;;;;;;12.85;7.40;;;;;;;24.17;52.17;100226.94;5093235;28;20048;-65
2023/06/19 07:49:02;;;;;;;13.95;7.72;;;;;;;24.18;51.75;100225.06;5092687;28;20059;-65
2023/06/19 07:51:31;;;;;;;15.82;8.38;;;;;;;24.18;51.42;100225.06;5092842;28;20138;-66
2023/06/19 07:53:59;;;;;;;11.38;7.38;;;;;;;24.24;51.76;100224.34;5092882;28;20044;-65
2023/06/19 07:56:28;;;;;;;9.82;6.75;;;;;;;24.25;51.96;100226.06;5092938;28;20083;-65
2023/06/19 07:58:56;;;;;;;9.07;6.63;;;;;;;24.25;52.04;100226.06;5092674;28;20052;-65
2023/06/19 08:01:25;;;;;;;10.73;7.22;;;;;;;24.25;51.52;100215.16;5092745;28;20123;-65
2023/06/19 08:03:53;;;;;;;10.75;6.90;;;;;;;24.26;50.83;100214.13;5092866;28;20101;-65
2023/06/19 08:06:22;;;;;;;11.00;6.80;;;;;;;24.25;50.67;100220.59;5092475;28;20040;-65
2023/06/19 08:08:51;;;;;;;9.35;6.57;;;;;;;24.26;50.83;100211.41;5092275;28;20133;-66
2023/06/19 08:11:19;;;;;;;8.27;6.50;;;;;;;24.28;50.80;100214.78;5092499;28;20465;-65
2023/06/19 08:13:49;;;;;;;11.43;6.90;;;;;;;24.30;50.99;100212.72;5092477;28;20055;-66
2023/06/19 08:16:17;;;;;;;9.88;6.82;;;;;;;24.33;51.43;100211.56;5092202;28;20485;-65
2023/06/19 08:18:46;;;;;;;10.77;6.88;;;;;;;24.37;51.28;100213.72;5092498;28;20044;-65
2023/06/19 08:21:14;;;;;;;8.48;6.90;;;;;;;24.41;51.33;100208.75;5092749;28;20051;-65
2023/06/19 08:23:43;;;;;;;9.70;6.53;;;;;;;24.44;51.43;100211.97;5092569;28;20102;-65
2023/06/19 08:26:12;;;;;;;11.45;6.28;;;;;;;24.46;51.43;100201.72;5092480;28;20117;-67
2023/06/19 08:28:41;;;;;;;9.52;6.57;;;;;;;24.49;51.25;100212.25;5092249;28;20048;-65
2023/06/19 08:31:11;;;;;;;9.90;6.20;;;;;;;24.52;51.29;100206.44;5092603;28;20452;-66
2023/06/19 08:33:40;;;;;;;8.77;6.35;;;;;;;24.53;51.36;100213.59;5092377;28;20058;-65
2023/06/19 08:36:13;;;;;;;7.95;6.47;;;;;;;24.57;51.15;100207.75;5092270;28;20101;-65
2023/06/19 08:38:41;;;;;;;8.80;6.32;;;;;;;24.58;50.80;100215.75;5092132;28;20089;-66
2023/06/19 08:41:09;;;;;;;9.73;6.82;;;;;;;24.61;51.00;100220.00;5092048;28;20043;-68
2023/06/19 08:43:37;;;;;;;9.13;7.00;;;;;;;24.63;51.18;100207.88;5092255;28;20059;-67
2023/06/19 08:46:12;;;;;;;8.32;6.63;;;;;;;24.67;51.17;100211.94;5090702;28;20044;-66
2023/06/19 08:48:41;;;;;;;9.10;6.82;;;;;;;24.72;51.59;100208.66;5091735;28;20130;-68
2023/06/19 08:51:10;;;;;;;9.80;6.63;;;;;;;24.75;51.25;100206.41;5091831;28;20079;-66
2023/06/19 08:53:46;;;;;;;9.98;6.50;;;;;;;24.79;51.05;100204.13;5092176;28;20074;-68
2023/06/19 08:56:14;;;;;;;9.18;6.55;;;;;;;24.80;50.94;100203.97;5091535;28;20127;-67
2023/06/19 08:58:43;;;;;;;11.10;6.60;;;;;;;24.81;50.78;100208.41;5091695;28;20050;-67
2023/06/19 09:01:17;;;;;;;8.75;6.85;;;;;;;24.82;50.63;100212.81;5091843;28;20047;-65
2023/06/19 09:03:46;;;;;;;9.20;6.50;;;;;;;24.83;50.35;100202.75;5092022;28;20079;-66
2023/06/19 09:06:16;;;;;;;11.20;6.75;;;;;;;24.85;50.32;100200.69;5091656;28;20045;-67
2023/06/19 09:08:45;;;;;;;10.07;6.88;;;;;;;24.89;50.38;100203.88;5091415;28;20135;-65
2023/06/19 09:11:13;;;;;;;9.55;6.18;;;;;;;24.91;50.58;100208.13;5091499;28;20056;-67
2023/06/19 09:13:41;;;;;;;9.82;6.50;;;;;;;24.96;50.64;100202.09;5091799;28;20040;-65
2023/06/19 09:16:09;;;;;;;8.23;6.47;;;;;;;24.98;50.20;100194.56;5091539;28;20044;-66
2023/06/19 09:18:46;;;;;;;10.35;6.97;;;;;;;25.01;49.78;100197.78;5091408;28;20113;-66
2023/06/19 09:21:18;;;;;;;10.77;6.50;;;;;;;25.04;49.89;100197.44;5091300;28;20079;-65
2023/06/19 09:23:47;;;;;;;9.23;6.45;;;;;;;25.07;50.09;100194.31;5091253;28;20606;-65
2023/06/19 09:26:15;;;;;;;9.05;6.22;;;;;;;25.10;49.89;100193.13;5091211;28;20059;-67
2023/06/19 09:28:44;;;;;;;8.77;6.75;;;;;;;25.10;48.91;100204.03;5091134;28;20482;-67
2023/06/19 09:31:13;;;;;;;9.07;6.40;;;;;;;25.14;48.69;100193.59;5091281;28;20052;-66
2023/06/19 09:33:41;;;;;;;10.23;6.40;;;;;;;25.19;49.13;100202.03;5091316;28;20122;-67
2023/06/19 09:36:11;;;;;;;11.20;6.82;;;;;;;25.23;48.86;100187.00;5091075;28;20048;-65
2023/06/19 09:38:40;;;;;;;8.73;6.70;;;;;;;25.25;48.26;100187.66;5090916;28;20044;-65
2023/06/19 09:41:08;;;;;;;10.23;6.68;;;;;;;25.26;47.82;100190.19;5091056;28;20120;-66
2023/06/19 09:43:38;;;;;;;7.43;6.25;;;;;;;25.27;46.26;100186.41;5090874;28;20044;-67
2023/06/19 09:46:10;;;;;;;9.00;6.30;;;;;;;25.30;46.05;100190.69;5091176;28;20048;-67
2023/06/19 09:48:43;;;;;;;9.43;6.10;;;;;;;25.32;45.30;100191.31;5090506;28;20083;-67
2023/06/19 09:51:18;;;;;;;11.45;6.43;;;;;;;25.34;44.52;100189.25;5090804;28;20508;-66
2023/06/19 09:53:47;;;;;;;7.43;5.75;;;;;;;25.35;44.73;100190.94;5090959;28;20060;-66
2023/06/19 09:56:17;;;;;;;7.78;5.72;;;;;;;25.36;44.41;100188.00;5090996;28;20539;-66
2023/06/19 09:58:46;;;;;;;8.63;6.00;;;;;;;25.39;44.05;100175.91;5090564;28;20047;-67
2023/06/19 10:01:15;;;;;;;8.25;5.90;;;;;;;25.41;43.74;100168.34;5090812;28;20044;-66
2023/06/19 10:03:43;;;;;;;8.98;5.93;;;;;;;25.43;44.40;100166.28;5091000;28;20048;-65
2023/06/19 10:06:16;;;;;;;8.85;6.15;;;;;;;25.45;44.82;100160.63;5090752;28;20055;-66
2023/06/19 10:08:46;;;;;;;9.05;6.35;;;;;;;25.49;44.88;100159.22;5090502;28;20058;-66
2023/06/19 10:11:14;;;;;;;10.18;5.90;;;;;;;25.52;45.33;100156.94;5090712;28;20044;-66
2023/06/19 10:13:43;;;;;;;8.65;6.18;;;;;;;25.52;45.42;100159.66;5089572;28;20162;-65
2023/06/19 10:16:21;;;;;;;10.00;6.20;;;;;;;25.56;44.98;100154.66;5090425;28;20461;-66
2023/06/19 10:18:49;;;;;;;7.90;6.18;;;;;;;25.58;45.39;100152.59;5090394;28;20170;-67
2023/06/19 10:21:19;;;;;;;8.43;6.03;;;;;;;25.59;45.50;100151.56;5090790;28;20063;-68
2023/06/19 10:23:55;;;;;;;8.82;6.03;;;;;;;25.62;44.79;100153.91;5090954;28;20575;-64
2023/06/19 10:26:32;;;;;;;8.20;6.15;;;;;;;25.67;44.88;100152.31;5090512;28;20044;-67
2023/06/19 10:29:00;;;;;;;7.90;6.30;;;;;;;25.72;44.74;100148.16;5090512;28;20052;-65
2023/06/19 10:31:29;;;;;;;8.70;6.47;;;;;;;25.75;44.87;100145.03;5090758;28;20186;-66
2023/06/19 10:33:58;;;;;;;7.93;6.35;;;;;;;25.80;44.30;100150.78;5090795;28;20052;-67
2023/06/19 10:36:27;;;;;;;8.98;6.53;;;;;;;25.82;44.07;100144.06;5090522;28;20079;-67
2023/06/19 10:38:55;;;;;;;8.65;6.13;;;;;;;25.85;44.14;100143.69;5088011;28;20046;-63
2023/06/19 10:41:25;;;;;;;8.40;6.30;;;;;;;25.88;44.21;100146.03;5090022;28;20070;-65
2023/06/19 10:43:57;;;;;;;6.90;6.00;;;;;;;25.92;43.69;100143.75;5089966;28;20044;-65
2023/06/19 10:46:30;;;;;;;9.30;6.27;;;;;;;25.94;44.36;100142.50;5090140;28;20114;-65
2023/06/19 10:49:01;;;;;;;10.15;6.28;;;;;;;25.98;44.49;100140.25;5073170;28;20493;-66
2023/06/19 10:51:31;;;;;;;9.00;6.40;;;;;;;26.01;44.26;100142.59;5089870;28;20524;-64
2023/06/19 10:53:59;;;;;;;7.97;6.07;;;;;;;26.04;44.16;100144.94;5089932;28;20066;-66
2023/06/19 10:56:27;;;;;;;9.00;6.70;;;;;;;26.10;43.20;100146.03;5090028;28;20055;-66
2023/06/19 10:59:00;;;;;;;7.30;6.28;;;;;;;26.18;43.54;100148.66;5090328;28;20044;-66
2023/06/19 11:15:40;;;;;;;8.43;6.25;;;;;;;26.25;44.45;100128.53;5087745;27;20719;-66
2023/06/19 11:18:08;;;;;;;8.82;6.57;;;;;;;26.32;43.60;100133.19;5087856;28;20048;-65
2023/06/19 11:20:45;;;;;;;9.18;6.47;;;;;;;26.39;43.24;100134.13;5067764;28;20122;-66
2023/06/19 11:23:13;;;;;;;10.18;6.70;;;;;;;26.44;43.02;100137.09;5067606;28;20551;-66
2023/06/19 11:25:43;;;;;;;8.55;6.55;;;;;;;26.49;42.73;100129.16;5067571;28;20053;-66
2023/06/19 11:28:17;;;;;;;8.30;6.80;;;;;;;26.52;42.54;100123.28;5067780;28;20123;-66
2023/06/19 11:30:47;;;;;;;9.15;6.32;;;;;;;26.56;42.67;100112.81;5067529;28;20051;-66
2023/06/19 11:33:22;;;;;;;10.02;6.43;;;;;;;26.59;42.17;100116.00;5067499;28;20041;-66
2023/06/19 11:35:51;;;;;;;7.95;6.28;;;;;;;26.61;42.40;100111.16;5067845;28;20522;-66
2023/06/19 11:38:21;;;;;;;9.88;6.88;;;;;;;26.62;43.08;100112.84;5067690;28;20071;-66
2023/06/19 11:40:49;;;;;;;8.95;6.28;;;;;;;26.62;43.01;100107.38;5067226;28;20045;-66
2023/06/19 11:43:27;;;;;;;8.00;6.53;;;;;;;26.64;43.12;100108.06;5067356;28;20083;-66
2023/06/19 11:46:02;;;;;;;8.20;5.97;;;;;;;26.66;43.11;100108.69;5067281;28;20575;-66